McShan, Alabama
Current Conditions -  °F | °C
As of 1:58 PM on Thursday 27 Nov 2014 (Local Time) from KCBM Reporting Station
Overcast Overcast  
Wind Chill: 37°   Ceiling: 3300
Heat Index: 44°   Visibility: 10mi
Dew Point: 28°   Wind: 14mph
Humidity: 54%   Direction: 320°NW
Pressure: 30.45"   Gusts: NA
Location:  33.38°N, 88.14°W
Report Text: KCBM 271958Z AUTO 32012KT 10SM OVC033 06/M02 A3045 RMK AO2 SLP316 T00641022 $
Loading
Personal Weather Stations






























Interactive Weather Map New forecast layout! Learn more

10-Day Weather Forecast

Advertisements
Track Severe Weather on mobile